sensor_id;sensor_type;location;lat;lon;timestamp;P1;durP1;ratioP1;P2;durP2;ratioP2
81703;SDS011;71117;52.352;4.808;2023-08-06T00:00:45;14.73;;;8.23;;
81703;SDS011;71117;52.352;4.808;2023-08-06T00:03:10;15.45;;;9.55;;
81703;SDS011;71117;52.352;4.808;2023-08-06T00:05:35;14.93;;;9.30;;
81703;SDS011;71117;52.352;4.808;2023-08-06T00:08:01;15.32;;;8.73;;
81703;SDS011;71117;52.352;4.808;2023-08-06T00:10:26;18.40;;;10.00;;
81703;SDS011;71117;52.352;4.808;2023-08-06T00:12:51;16.33;;;9.95;;
81703;SDS011;71117;52.352;4.808;2023-08-06T00:15:17;18.50;;;10.55;;
81703;SDS011;71117;52.352;4.808;2023-08-06T00:17:42;21.33;;;11.23;;
81703;SDS011;71117;52.352;4.808;2023-08-06T00:20:08;21.00;;;11.85;;
81703;SDS011;71117;52.352;4.808;2023-08-06T00:22:34;21.88;;;13.07;;
81703;SDS011;71117;52.352;4.808;2023-08-06T00:25:00;28.70;;;14.25;;
81703;SDS011;71117;52.352;4.808;2023-08-06T00:27:26;30.45;;;15.85;;
81703;SDS011;71117;52.352;4.808;2023-08-06T00:29:51;23.73;;;13.68;;
81703;SDS011;71117;52.352;4.808;2023-08-06T00:32:17;26.27;;;13.75;;
81703;SDS011;71117;52.352;4.808;2023-08-06T00:34:43;26.75;;;14.13;;
81703;SDS011;71117;52.352;4.808;2023-08-06T00:37:08;25.40;;;14.02;;
81703;SDS011;71117;52.352;4.808;2023-08-06T00:39:33;26.33;;;13.90;;
81703;SDS011;71117;52.352;4.808;2023-08-06T00:41:59;26.30;;;13.82;;
81703;SDS011;71117;52.352;4.808;2023-08-06T00:44:24;28.52;;;14.82;;
81703;SDS011;71117;52.352;4.808;2023-08-06T00:46:50;30.20;;;14.90;;
81703;SDS011;71117;52.352;4.808;2023-08-06T00:49:15;30.45;;;15.07;;
81703;SDS011;71117;52.352;4.808;2023-08-06T00:51:41;24.10;;;14.15;;
81703;SDS011;71117;52.352;4.808;2023-08-06T00:54:08;28.55;;;15.30;;
81703;SDS011;71117;52.352;4.808;2023-08-06T00:56:34;24.20;;;13.68;;
81703;SDS011;71117;52.352;4.808;2023-08-06T00:59:02;26.25;;;14.20;;
81703;SDS011;71117;52.352;4.808;2023-08-06T01:01:29;26.75;;;15.20;;
81703;SDS011;71117;52.352;4.808;2023-08-06T01:03:55;32.03;;;15.93;;
81703;SDS011;71117;52.352;4.808;2023-08-06T01:06:23;26.42;;;14.82;;
81703;SDS011;71117;52.352;4.808;2023-08-06T01:11:56;28.75;;;14.73;;
81703;SDS011;71117;52.352;4.808;2023-08-06T01:14:23;23.13;;;14.15;;
81703;SDS011;71117;52.352;4.808;2023-08-06T01:16:55;28.33;;;14.48;;
81703;SDS011;71117;52.352;4.808;2023-08-06T01:19:23;28.60;;;14.95;;
81703;SDS011;71117;52.352;4.808;2023-08-06T01:21:49;25.75;;;14.57;;
81703;SDS011;71117;52.352;4.808;2023-08-06T01:24:14;26.48;;;14.57;;
81703;SDS011;71117;52.352;4.808;2023-08-06T01:27:17;29.77;;;15.00;;
81703;SDS011;71117;52.352;4.808;2023-08-06T01:29:47;24.40;;;13.40;;
81703;SDS011;71117;52.352;4.808;2023-08-06T01:32:19;27.08;;;13.73;;
81703;SDS011;71117;52.352;4.808;2023-08-06T01:34:46;19.92;;;12.18;;
81703;SDS011;71117;52.352;4.808;2023-08-06T01:37:13;26.58;;;13.23;;
81703;SDS011;71117;52.352;4.808;2023-08-06T01:39:39;26.77;;;14.43;;
81703;SDS011;71117;52.352;4.808;2023-08-06T01:42:07;26.25;;;14.10;;
81703;SDS011;71117;52.352;4.808;2023-08-06T01:44:33;29.98;;;15.15;;
81703;SDS011;71117;52.352;4.808;2023-08-06T01:46:58;22.85;;;12.95;;
81703;SDS011;71117;52.352;4.808;2023-08-06T01:49:24;24.95;;;12.80;;
81703;SDS011;71117;52.352;4.808;2023-08-06T01:51:49;23.80;;;13.32;;
81703;SDS011;71117;52.352;4.808;2023-08-06T01:54:14;22.00;;;13.07;;
81703;SDS011;71117;52.352;4.808;2023-08-06T01:56:40;21.48;;;12.75;;
81703;SDS011;71117;52.352;4.808;2023-08-06T01:59:05;25.52;;;12.70;;
81703;SDS011;71117;52.352;4.808;2023-08-06T02:01:30;23.85;;;12.88;;
81703;SDS011;71117;52.352;4.808;2023-08-06T02:03:56;24.13;;;13.35;;
81703;SDS011;71117;52.352;4.808;2023-08-06T02:06:21;23.23;;;12.45;;
81703;SDS011;71117;52.352;4.808;2023-08-06T02:08:46;20.45;;;11.63;;
81703;SDS011;71117;52.352;4.808;2023-08-06T02:11:12;24.25;;;12.60;;
81703;SDS011;71117;52.352;4.808;2023-08-06T02:13:37;21.63;;;11.30;;
81703;SDS011;71117;52.352;4.808;2023-08-06T02:16:02;17.17;;;9.98;;
81703;SDS011;71117;52.352;4.808;2023-08-06T02:18:28;16.75;;;9.15;;
81703;SDS011;71117;52.352;4.808;2023-08-06T02:20:57;17.10;;;9.20;;
81703;SDS011;71117;52.352;4.808;2023-08-06T02:23:23;13.75;;;7.63;;
81703;SDS011;71117;52.352;4.808;2023-08-06T02:25:56;17.95;;;8.95;;
81703;SDS011;71117;52.352;4.808;2023-08-06T02:28:25;18.88;;;8.60;;
81703;SDS011;71117;52.352;4.808;2023-08-06T02:30:51;15.82;;;8.10;;
81703;SDS011;71117;52.352;4.808;2023-08-06T02:33:16;8.48;;;5.18;;
81703;SDS011;71117;52.352;4.808;2023-08-06T02:35:42;9.05;;;4.85;;
81703;SDS011;71117;52.352;4.808;2023-08-06T02:38:07;12.45;;;5.72;;
81703;SDS011;71117;52.352;4.808;2023-08-06T02:40:32;11.43;;;6.25;;
81703;SDS011;71117;52.352;4.808;2023-08-06T02:42:58;11.95;;;6.68;;
81703;SDS011;71117;52.352;4.808;2023-08-06T02:45:23;11.23;;;6.32;;
81703;SDS011;71117;52.352;4.808;2023-08-06T02:47:48;11.63;;;6.22;;
81703;SDS011;71117;52.352;4.808;2023-08-06T02:50:13;6.43;;;4.70;;
81703;SDS011;71117;52.352;4.808;2023-08-06T02:52:39;9.10;;;4.88;;
81703;SDS011;71117;52.352;4.808;2023-08-06T02:55:05;8.73;;;5.53;;
81703;SDS011;71117;52.352;4.808;2023-08-06T02:57:31;10.23;;;5.85;;
81703;SDS011;71117;52.352;4.808;2023-08-06T02:59:56;11.65;;;6.68;;
81703;SDS011;71117;52.352;4.808;2023-08-06T03:02:22;9.63;;;6.00;;
81703;SDS011;71117;52.352;4.808;2023-08-06T03:04:47;12.00;;;5.75;;
81703;SDS011;71117;52.352;4.808;2023-08-06T03:07:12;10.98;;;6.32;;
81703;SDS011;71117;52.352;4.808;2023-08-06T03:09:38;9.57;;;5.57;;
81703;SDS011;71117;52.352;4.808;2023-08-06T03:12:03;8.38;;;5.32;;
81703;SDS011;71117;52.352;4.808;2023-08-06T03:14:28;10.82;;;5.60;;
81703;SDS011;71117;52.352;4.808;2023-08-06T03:16:54;12.13;;;6.80;;
81703;SDS011;71117;52.352;4.808;2023-08-06T03:19:19;17.33;;;8.68;;
81703;SDS011;71117;52.352;4.808;2023-08-06T03:21:44;13.70;;;8.23;;
81703;SDS011;71117;52.352;4.808;2023-08-06T03:24:10;13.65;;;8.35;;
81703;SDS011;71117;52.352;4.808;2023-08-06T03:26:35;12.48;;;7.05;;
81703;SDS011;71117;52.352;4.808;2023-08-06T03:29:00;14.20;;;7.13;;
81703;SDS011;71117;52.352;4.808;2023-08-06T03:31:26;12.57;;;7.35;;
81703;SDS011;71117;52.352;4.808;2023-08-06T03:33:51;11.50;;;6.97;;
81703;SDS011;71117;52.352;4.808;2023-08-06T03:36:16;11.98;;;7.50;;
81703;SDS011;71117;52.352;4.808;2023-08-06T03:38:42;10.40;;;6.20;;
81703;SDS011;71117;52.352;4.808;2023-08-06T03:41:07;8.20;;;5.55;;
81703;SDS011;71117;52.352;4.808;2023-08-06T03:43:32;7.80;;;4.45;;
81703;SDS011;71117;52.352;4.808;2023-08-06T03:45:58;9.20;;;4.45;;
81703;SDS011;71117;52.352;4.808;2023-08-06T03:48:23;6.07;;;4.10;;
81703;SDS011;71117;52.352;4.808;2023-08-06T03:50:48;7.45;;;4.45;;
81703;SDS011;71117;52.352;4.808;2023-08-06T03:53:14;5.90;;;3.53;;
81703;SDS011;71117;52.352;4.808;2023-08-06T03:55:39;5.20;;;3.90;;
81703;SDS011;71117;52.352;4.808;2023-08-06T03:58:04;8.00;;;4.72;;
81703;SDS011;71117;52.352;4.808;2023-08-06T04:00:30;5.20;;;4.03;;
81703;SDS011;71117;52.352;4.808;2023-08-06T04:02:55;6.57;;;4.35;;
81703;SDS011;71117;52.352;4.808;2023-08-06T04:05:20;7.25;;;4.47;;
81703;SDS011;71117;52.352;4.808;2023-08-06T04:07:46;6.70;;;4.50;;
81703;SDS011;71117;52.352;4.808;2023-08-06T04:10:11;7.38;;;4.30;;
81703;SDS011;71117;52.352;4.808;2023-08-06T04:12:36;5.45;;;3.67;;
81703;SDS011;71117;52.352;4.808;2023-08-06T04:15:04;6.85;;;3.97;;
81703;SDS011;71117;52.352;4.808;2023-08-06T04:17:30;8.80;;;3.90;;
81703;SDS011;71117;52.352;4.808;2023-08-06T04:19:55;5.20;;;3.42;;
81703;SDS011;71117;52.352;4.808;2023-08-06T04:22:24;8.85;;;3.97;;
81703;SDS011;71117;52.352;4.808;2023-08-06T04:24:49;6.40;;;4.55;;
81703;SDS011;71117;52.352;4.808;2023-08-06T04:27:15;5.57;;;4.05;;
81703;SDS011;71117;52.352;4.808;2023-08-06T04:29:41;9.73;;;5.55;;
81703;SDS011;71117;52.352;4.808;2023-08-06T04:32:08;7.85;;;4.72;;
81703;SDS011;71117;52.352;4.808;2023-08-06T04:34:35;7.97;;;5.25;;
81703;SDS011;71117;52.352;4.808;2023-08-06T04:37:01;10.02;;;5.55;;
81703;SDS011;71117;52.352;4.808;2023-08-06T04:39:27;8.20;;;5.53;;
81703;SDS011;71117;52.352;4.808;2023-08-06T04:41:53;10.57;;;6.40;;
81703;SDS011;71117;52.352;4.808;2023-08-06T04:44:18;11.32;;;6.70;;
81703;SDS011;71117;52.352;4.808;2023-08-06T04:46:43;11.07;;;6.32;;
81703;SDS011;71117;52.352;4.808;2023-08-06T04:49:09;8.02;;;4.25;;
81703;SDS011;71117;52.352;4.808;2023-08-06T04:51:35;4.85;;;3.30;;
81703;SDS011;71117;52.352;4.808;2023-08-06T04:54:00;3.85;;;3.10;;
81703;SDS011;71117;52.352;4.808;2023-08-06T04:56:26;4.78;;;3.30;;
81703;SDS011;71117;52.352;4.808;2023-08-06T04:58:52;7.00;;;3.85;;
81703;SDS011;71117;52.352;4.808;2023-08-06T05:01:17;5.45;;;3.05;;
81703;SDS011;71117;52.352;4.808;2023-08-06T05:03:42;3.90;;;3.45;;
81703;SDS011;71117;52.352;4.808;2023-08-06T05:06:08;5.35;;;3.40;;
81703;SDS011;71117;52.352;4.808;2023-08-06T05:08:33;5.63;;;3.90;;
81703;SDS011;71117;52.352;4.808;2023-08-06T05:10:59;7.22;;;4.90;;
81703;SDS011;71117;52.352;4.808;2023-08-06T05:13:24;9.82;;;5.47;;
81703;SDS011;71117;52.352;4.808;2023-08-06T05:15:50;7.40;;;5.22;;
81703;SDS011;71117;52.352;4.808;2023-08-06T05:18:15;9.70;;;6.35;;
81703;SDS011;71117;52.352;4.808;2023-08-06T05:20:41;9.25;;;6.30;;
81703;SDS011;71117;52.352;4.808;2023-08-06T05:23:07;9.40;;;6.65;;
81703;SDS011;71117;52.352;4.808;2023-08-06T05:25:36;11.32;;;7.60;;
81703;SDS011;71117;52.352;4.808;2023-08-06T05:28:02;12.80;;;8.23;;
81703;SDS011;71117;52.352;4.808;2023-08-06T05:30:28;13.40;;;7.43;;
81703;SDS011;71117;52.352;4.808;2023-08-06T05:32:53;13.90;;;8.38;;
81703;SDS011;71117;52.352;4.808;2023-08-06T05:35:18;13.88;;;8.15;;
81703;SDS011;71117;52.352;4.808;2023-08-06T05:37:44;12.73;;;8.35;;
81703;SDS011;71117;52.352;4.808;2023-08-06T05:40:09;13.70;;;8.40;;
81703;SDS011;71117;52.352;4.808;2023-08-06T05:42:35;13.40;;;9.10;;
81703;SDS011;71117;52.352;4.808;2023-08-06T05:45:00;12.52;;;8.38;;
81703;SDS011;71117;52.352;4.808;2023-08-06T05:47:25;14.52;;;9.27;;
81703;SDS011;71117;52.352;4.808;2023-08-06T05:49:51;13.75;;;9.82;;
81703;SDS011;71117;52.352;4.808;2023-08-06T05:52:16;17.85;;;9.68;;
81703;SDS011;71117;52.352;4.808;2023-08-06T05:54:41;13.20;;;9.20;;
81703;SDS011;71117;52.352;4.808;2023-08-06T05:57:07;14.93;;;9.50;;
81703;SDS011;71117;52.352;4.808;2023-08-06T05:59:32;15.27;;;9.82;;
81703;SDS011;71117;52.352;4.808;2023-08-06T06:01:57;16.58;;;10.18;;
81703;SDS011;71117;52.352;4.808;2023-08-06T06:04:23;17.70;;;10.77;;
81703;SDS011;71117;52.352;4.808;2023-08-06T06:06:48;13.90;;;9.20;;
81703;SDS011;71117;52.352;4.808;2023-08-06T06:09:13;14.73;;;9.57;;
81703;SDS011;71117;52.352;4.808;2023-08-06T06:11:39;15.45;;;9.10;;
81703;SDS011;71117;52.352;4.808;2023-08-06T06:14:04;14.73;;;9.70;;
81703;SDS011;71117;52.352;4.808;2023-08-06T06:16:30;12.93;;;8.90;;
81703;SDS011;71117;52.352;4.808;2023-08-06T06:18:55;15.27;;;8.73;;
81703;SDS011;71117;52.352;4.808;2023-08-06T06:21:22;11.32;;;8.95;;
81703;SDS011;71117;52.352;4.808;2023-08-06T06:23:47;12.25;;;7.72;;
81703;SDS011;71117;52.352;4.808;2023-08-06T06:26:13;9.55;;;7.18;;
81703;SDS011;71117;52.352;4.808;2023-08-06T06:28:38;11.32;;;7.50;;
81703;SDS011;71117;52.352;4.808;2023-08-06T06:31:03;10.50;;;6.00;;
81703;SDS011;71117;52.352;4.808;2023-08-06T06:33:29;9.85;;;6.40;;
81703;SDS011;71117;52.352;4.808;2023-08-06T06:35:54;10.43;;;7.53;;
81703;SDS011;71117;52.352;4.808;2023-08-06T06:38:20;8.73;;;7.30;;
81703;SDS011;71117;52.352;4.808;2023-08-06T06:40:57;12.23;;;7.10;;
81703;SDS011;71117;52.352;4.808;2023-08-06T06:43:23;13.57;;;7.68;;
81703;SDS011;71117;52.352;4.808;2023-08-06T06:45:53;13.55;;;8.77;;
81703;SDS011;71117;52.352;4.808;2023-08-06T06:48:19;13.27;;;7.88;;
81703;SDS011;71117;52.352;4.808;2023-08-06T06:50:47;12.88;;;8.50;;
81703;SDS011;71117;52.352;4.808;2023-08-06T06:53:13;11.70;;;8.35;;
81703;SDS011;71117;52.352;4.808;2023-08-06T06:55:38;14.93;;;8.77;;
81703;SDS011;71117;52.352;4.808;2023-08-06T06:58:03;13.30;;;8.98;;
81703;SDS011;71117;52.352;4.808;2023-08-06T07:00:29;12.65;;;8.43;;
81703;SDS011;71117;52.352;4.808;2023-08-06T07:02:54;14.30;;;9.05;;
81703;SDS011;71117;52.352;4.808;2023-08-06T07:05:19;13.20;;;7.95;;
81703;SDS011;71117;52.352;4.808;2023-08-06T07:07:45;12.55;;;8.38;;
81703;SDS011;71117;52.352;4.808;2023-08-06T07:10:10;10.80;;;7.60;;
81703;SDS011;71117;52.352;4.808;2023-08-06T07:12:36;12.32;;;8.43;;
81703;SDS011;71117;52.352;4.808;2023-08-06T07:15:02;12.98;;;8.20;;
81703;SDS011;71117;52.352;4.808;2023-08-06T07:17:29;13.10;;;8.13;;
81703;SDS011;71117;52.352;4.808;2023-08-06T07:19:55;11.00;;;7.85;;
81703;SDS011;71117;52.352;4.808;2023-08-06T07:22:20;14.50;;;8.90;;
81703;SDS011;71117;52.352;4.808;2023-08-06T07:24:45;11.90;;;7.63;;
81703;SDS011;71117;52.352;4.808;2023-08-06T07:27:11;11.30;;;7.87;;
81703;SDS011;71117;52.352;4.808;2023-08-06T07:29:36;12.73;;;7.72;;
81703;SDS011;71117;52.352;4.808;2023-08-06T07:32:01;12.02;;;7.40;;
81703;SDS011;71117;52.352;4.808;2023-08-06T07:34:27;9.27;;;6.88;;
81703;SDS011;71117;52.352;4.808;2023-08-06T07:36:52;8.95;;;6.47;;
81703;SDS011;71117;52.352;4.808;2023-08-06T07:39:17;10.73;;;6.72;;
81703;SDS011;71117;52.352;4.808;2023-08-06T07:41:43;12.10;;;6.82;;
81703;SDS011;71117;52.352;4.808;2023-08-06T07:44:08;13.55;;;6.63;;
81703;SDS011;71117;52.352;4.808;2023-08-06T07:46:33;10.02;;;5.78;;
81703;SDS011;71117;52.352;4.808;2023-08-06T07:48:59;9.63;;;6.20;;
81703;SDS011;71117;52.352;4.808;2023-08-06T07:51:24;11.38;;;6.15;;
81703;SDS011;71117;52.352;4.808;2023-08-06T07:53:50;8.73;;;6.10;;
81703;SDS011;71117;52.352;4.808;2023-08-06T07:56:15;10.85;;;6.57;;
81703;SDS011;71117;52.352;4.808;2023-08-06T07:58:40;7.78;;;4.97;;
81703;SDS011;71117;52.352;4.808;2023-08-06T08:01:06;8.65;;;5.47;;
81703;SDS011;71117;52.352;4.808;2023-08-06T08:03:32;9.45;;;5.47;;
81703;SDS011;71117;52.352;4.808;2023-08-06T08:05:57;8.10;;;5.57;;
81703;SDS011;71117;52.352;4.808;2023-08-06T08:08:23;7.50;;;5.70;;
81703;SDS011;71117;52.352;4.808;2023-08-06T08:10:48;8.88;;;5.50;;
81703;SDS011;71117;52.352;4.808;2023-08-06T08:13:14;9.32;;;6.18;;
81703;SDS011;71117;52.352;4.808;2023-08-06T08:15:39;9.15;;;5.65;;
81703;SDS011;71117;52.352;4.808;2023-08-06T08:18:04;9.38;;;6.07;;
81703;SDS011;71117;52.352;4.808;2023-08-06T08:20:30;11.50;;;7.07;;
81703;SDS011;71117;52.352;4.808;2023-08-06T08:23:00;10.10;;;5.07;;
81703;SDS011;71117;52.352;4.808;2023-08-06T08:25:26;10.45;;;5.03;;
81703;SDS011;71117;52.352;4.808;2023-08-06T08:27:52;7.35;;;4.93;;
81703;SDS011;71117;52.352;4.808;2023-08-06T08:30:17;11.68;;;5.30;;
81703;SDS011;71117;52.352;4.808;2023-08-06T08:32:43;11.85;;;5.35;;
81703;SDS011;71117;52.352;4.808;2023-08-06T08:35:09;9.85;;;4.75;;
81703;SDS011;71117;52.352;4.808;2023-08-06T08:37:35;8.75;;;5.43;;
81703;SDS011;71117;52.352;4.808;2023-08-06T08:40:01;9.98;;;4.53;;
81703;SDS011;71117;52.352;4.808;2023-08-06T08:42:28;9.05;;;4.25;;
81703;SDS011;71117;52.352;4.808;2023-08-06T08:44:53;8.82;;;4.47;;
81703;SDS011;71117;52.352;4.808;2023-08-06T08:47:20;7.95;;;4.68;;
81703;SDS011;71117;52.352;4.808;2023-08-06T08:49:45;12.23;;;3.97;;
81703;SDS011;71117;52.352;4.808;2023-08-06T08:52:12;6.50;;;4.20;;
81703;SDS011;71117;52.352;4.808;2023-08-06T08:54:41;9.15;;;4.53;;
81703;SDS011;71117;52.352;4.808;2023-08-06T08:57:08;7.57;;;3.17;;
81703;SDS011;71117;52.352;4.808;2023-08-06T08:59:33;6.55;;;3.80;;
81703;SDS011;71117;52.352;4.808;2023-08-06T09:02:00;7.43;;;3.78;;
81703;SDS011;71117;52.352;4.808;2023-08-06T09:04:26;6.80;;;3.92;;
81703;SDS011;71117;52.352;4.808;2023-08-06T09:06:56;6.30;;;3.38;;
81703;SDS011;71117;52.352;4.808;2023-08-06T09:09:28;5.72;;;2.85;;
81703;SDS011;71117;52.352;4.808;2023-08-06T09:11:59;4.68;;;2.42;;
81703;SDS011;71117;52.352;4.808;2023-08-06T09:14:27;6.93;;;2.55;;
81703;SDS011;71117;52.352;4.808;2023-08-06T09:16:53;8.90;;;2.55;;
81703;SDS011;71117;52.352;4.808;2023-08-06T09:19:19;5.47;;;2.00;;
81703;SDS011;71117;52.352;4.808;2023-08-06T09:21:45;3.33;;;1.50;;
81703;SDS011;71117;52.352;4.808;2023-08-06T09:24:13;6.50;;;1.75;;
81703;SDS011;71117;52.352;4.808;2023-08-06T09:26:40;4.30;;;1.58;;
81703;SDS011;71117;52.352;4.808;2023-08-06T09:29:06;2.83;;;1.17;;
81703;SDS011;71117;52.352;4.808;2023-08-06T09:31:42;2.67;;;1.15;;
81703;SDS011;71117;52.352;4.808;2023-08-06T09:36:47;2.45;;;1.60;;
81703;SDS011;71117;52.352;4.808;2023-08-06T09:39:17;3.28;;;1.30;;
81703;SDS011;71117;52.352;4.808;2023-08-06T09:41:44;1.88;;;0.88;;
81703;SDS011;71117;52.352;4.808;2023-08-06T09:44:17;4.43;;;1.38;;
81703;SDS011;71117;52.352;4.808;2023-08-06T09:46:51;2.00;;;1.33;;
81703;SDS011;71117;52.352;4.808;2023-08-06T09:49:18;3.70;;;1.30;;
81703;SDS011;71117;52.352;4.808;2023-08-06T09:51:45;4.80;;;1.65;;
81703;SDS011;71117;52.352;4.808;2023-08-06T09:54:15;2.33;;;1.40;;
81703;SDS011;71117;52.352;4.808;2023-08-06T09:56:44;5.80;;;1.80;;
81703;SDS011;71117;52.352;4.808;2023-08-06T09:59:09;4.78;;;1.48;;
81703;SDS011;71117;52.352;4.808;2023-08-06T10:01:36;2.42;;;1.42;;
81703;SDS011;71117;52.352;4.808;2023-08-06T10:04:05;2.38;;;1.52;;
81703;SDS011;71117;52.352;4.808;2023-08-06T10:06:36;6.15;;;1.10;;
81703;SDS011;71117;52.352;4.808;2023-08-06T10:09:02;1.73;;;1.08;;
81703;SDS011;71117;52.352;4.808;2023-08-06T10:11:31;3.83;;;1.60;;
81703;SDS011;71117;52.352;4.808;2023-08-06T10:13:58;3.38;;;1.40;;
81703;SDS011;71117;52.352;4.808;2023-08-06T10:16:29;3.90;;;1.33;;
81703;SDS011;71117;52.352;4.808;2023-08-06T10:18:55;2.08;;;0.90;;
81703;SDS011;71117;52.352;4.808;2023-08-06T10:21:23;3.08;;;0.95;;
81703;SDS011;71117;52.352;4.808;2023-08-06T10:23:53;2.55;;;1.05;;
81703;SDS011;71117;52.352;4.808;2023-08-06T10:26:19;2.10;;;0.70;;
81703;SDS011;71117;52.352;4.808;2023-08-06T10:28:45;3.75;;;0.80;;
81703;SDS011;71117;52.352;4.808;2023-08-06T10:31:10;1.90;;;0.90;;
81703;SDS011;71117;52.352;4.808;2023-08-06T10:33:42;1.80;;;1.08;;
81703;SDS011;71117;52.352;4.808;2023-08-06T10:36:10;3.83;;;1.10;;
81703;SDS011;71117;52.352;4.808;2023-08-06T10:38:43;2.55;;;0.90;;
81703;SDS011;71117;52.352;4.808;2023-08-06T10:41:09;2.33;;;1.10;;
81703;SDS011;71117;52.352;4.808;2023-08-06T10:44:04;3.38;;;1.08;;
81703;SDS011;71117;52.352;4.808;2023-08-06T10:46:34;1.63;;;1.00;;
81703;SDS011;71117;52.352;4.808;2023-08-06T10:49:00;2.08;;;1.23;;
81703;SDS011;71117;52.352;4.808;2023-08-06T10:51:26;2.95;;;1.40;;
81703;SDS011;71117;52.352;4.808;2023-08-06T10:53:52;4.85;;;2.03;;
81703;SDS011;71117;52.352;4.808;2023-08-06T10:56:19;1.73;;;0.85;;
81703;SDS011;71117;52.352;4.808;2023-08-06T10:58:45;2.72;;;1.15;;
81703;SDS011;71117;52.352;4.808;2023-08-06T11:01:11;2.40;;;1.13;;
81703;SDS011;71117;52.352;4.808;2023-08-06T11:03:38;3.90;;;1.30;;
81703;SDS011;71117;52.352;4.808;2023-08-06T11:06:04;3.28;;;1.30;;
81703;SDS011;71117;52.352;4.808;2023-08-06T11:08:36;2.45;;;1.10;;
81703;SDS011;71117;52.352;4.808;2023-08-06T11:11:09;2.90;;;1.13;;
81703;SDS011;71117;52.352;4.808;2023-08-06T11:13:41;2.20;;;1.08;;
81703;SDS011;71117;52.352;4.808;2023-08-06T11:16:07;2.75;;;0.90;;
81703;SDS011;71117;52.352;4.808;2023-08-06T11:18:33;1.92;;;0.90;;
81703;SDS011;71117;52.352;4.808;2023-08-06T11:20:59;3.85;;;1.20;;
81703;SDS011;71117;52.352;4.808;2023-08-06T11:23:29;5.35;;;1.50;;
81703;SDS011;71117;52.352;4.808;2023-08-06T11:25:55;4.95;;;1.52;;
81703;SDS011;71117;52.352;4.808;2023-08-06T11:28:21;2.78;;;1.10;;
81703;SDS011;71117;52.352;4.808;2023-08-06T11:30:47;4.85;;;1.75;;
81703;SDS011;71117;52.352;4.808;2023-08-06T11:33:13;4.38;;;1.50;;
81703;SDS011;71117;52.352;4.808;2023-08-06T11:35:38;3.78;;;1.60;;
81703;SDS011;71117;52.352;4.808;2023-08-06T11:38:04;5.35;;;2.55;;
81703;SDS011;71117;52.352;4.808;2023-08-06T11:40:30;4.40;;;1.10;;
81703;SDS011;71117;52.352;4.808;2023-08-06T11:42:57;5.47;;;1.67;;
81703;SDS011;71117;52.352;4.808;2023-08-06T11:45:23;4.22;;;1.35;;
81703;SDS011;71117;52.352;4.808;2023-08-06T11:47:49;2.63;;;1.52;;
81703;SDS011;71117;52.352;4.808;2023-08-06T11:50:26;5.20;;;1.52;;
81703;SDS011;71117;52.352;4.808;2023-08-06T11:52:56;4.35;;;1.58;;
81703;SDS011;71117;52.352;4.808;2023-08-06T11:55:23;3.75;;;1.83;;
81703;SDS011;71117;52.352;4.808;2023-08-06T11:57:49;3.95;;;1.50;;
81703;SDS011;71117;52.352;4.808;2023-08-06T12:00:15;3.15;;;1.75;;
81703;SDS011;71117;52.352;4.808;2023-08-06T12:02:43;3.17;;;1.27;;
81703;SDS011;71117;52.352;4.808;2023-08-06T12:05:10;3.03;;;1.33;;
81703;SDS011;71117;52.352;4.808;2023-08-06T12:07:37;4.15;;;1.17;;
81703;SDS011;71117;52.352;4.808;2023-08-06T12:10:04;4.10;;;1.30;;
81703;SDS011;71117;52.352;4.808;2023-08-06T12:12:30;1.88;;;1.13;;
81703;SDS011;71117;52.352;4.808;2023-08-06T12:14:55;4.75;;;2.50;;
81703;SDS011;71117;52.352;4.808;2023-08-06T12:17:21;3.78;;;1.20;;
81703;SDS011;71117;52.352;4.808;2023-08-06T12:19:47;3.47;;;1.30;;
81703;SDS011;71117;52.352;4.808;2023-08-06T12:22:13;2.92;;;1.08;;
81703;SDS011;71117;52.352;4.808;2023-08-06T12:24:40;2.00;;;0.90;;
81703;SDS011;71117;52.352;4.808;2023-08-06T12:27:09;3.53;;;1.05;;
81703;SDS011;71117;52.352;4.808;2023-08-06T12:29:35;4.13;;;1.10;;
81703;SDS011;71117;52.352;4.808;2023-08-06T12:32:01;2.28;;;1.15;;
81703;SDS011;71117;52.352;4.808;2023-08-06T12:34:27;3.83;;;1.45;;
81703;SDS011;71117;52.352;4.808;2023-08-06T12:36:52;3.42;;;1.10;;
81703;SDS011;71117;52.352;4.808;2023-08-06T12:39:17;4.05;;;1.17;;
81703;SDS011;71117;52.352;4.808;2023-08-06T12:41:43;3.40;;;1.17;;
81703;SDS011;71117;52.352;4.808;2023-08-06T12:44:10;2.05;;;0.80;;
81703;SDS011;71117;52.352;4.808;2023-08-06T12:46:36;2.50;;;1.10;;
81703;SDS011;71117;52.352;4.808;2023-08-06T12:49:02;3.47;;;1.00;;
81703;SDS011;71117;52.352;4.808;2023-08-06T12:51:27;4.30;;;1.15;;
81703;SDS011;71117;52.352;4.808;2023-08-06T12:53:52;1.35;;;0.80;;
81703;SDS011;71117;52.352;4.808;2023-08-06T12:56:17;2.45;;;1.15;;
81703;SDS011;71117;52.352;4.808;2023-08-06T12:58:43;2.08;;;0.80;;
81703;SDS011;71117;52.352;4.808;2023-08-06T13:01:09;1.90;;;1.00;;
81703;SDS011;71117;52.352;4.808;2023-08-06T13:03:34;3.13;;;0.82;;
81703;SDS011;71117;52.352;4.808;2023-08-06T13:06:00;1.55;;;0.75;;
81703;SDS011;71117;52.352;4.808;2023-08-06T13:08:25;3.05;;;0.90;;
81703;SDS011;71117;52.352;4.808;2023-08-06T13:10:50;3.13;;;0.95;;
81703;SDS011;71117;52.352;4.808;2023-08-06T13:13:16;3.28;;;0.63;;
81703;SDS011;71117;52.352;4.808;2023-08-06T13:15:41;1.80;;;1.10;;
81703;SDS011;71117;52.352;4.808;2023-08-06T13:18:07;2.58;;;1.00;;
81703;SDS011;71117;52.352;4.808;2023-08-06T13:20:32;2.10;;;1.20;;
81703;SDS011;71117;52.352;4.808;2023-08-06T13:22:58;1.88;;;0.90;;
81703;SDS011;71117;52.352;4.808;2023-08-06T13:25:24;1.92;;;0.95;;
81703;SDS011;71117;52.352;4.808;2023-08-06T13:27:50;1.55;;;0.90;;
81703;SDS011;71117;52.352;4.808;2023-08-06T13:30:15;2.85;;;0.98;;
81703;SDS011;71117;52.352;4.808;2023-08-06T13:32:42;5.80;;;1.65;;
81703;SDS011;71117;52.352;4.808;2023-08-06T13:35:08;1.33;;;0.80;;
81703;SDS011;71117;52.352;4.808;2023-08-06T13:37:33;1.45;;;0.95;;
81703;SDS011;71117;52.352;4.808;2023-08-06T13:39:59;2.10;;;1.02;;
81703;SDS011;71117;52.352;4.808;2023-08-06T13:42:24;1.75;;;0.77;;
81703;SDS011;71117;52.352;4.808;2023-08-06T13:44:49;2.15;;;0.82;;
81703;SDS011;71117;52.352;4.808;2023-08-06T13:47:15;1.25;;;0.95;;
81703;SDS011;71117;52.352;4.808;2023-08-06T13:49:40;4.95;;;1.00;;
81703;SDS011;71117;52.352;4.808;2023-08-06T13:52:05;2.33;;;0.80;;
81703;SDS011;71117;52.352;4.808;2023-08-06T13:54:31;3.85;;;1.02;;
81703;SDS011;71117;52.352;4.808;2023-08-06T13:56:57;2.53;;;1.00;;
81703;SDS011;71117;52.352;4.808;2023-08-06T13:59:22;4.65;;;1.00;;
81703;SDS011;71117;52.352;4.808;2023-08-06T14:01:49;5.72;;;0.73;;
81703;SDS011;71117;52.352;4.808;2023-08-06T14:04:15;5.28;;;0.80;;
81703;SDS011;71117;52.352;4.808;2023-08-06T14:06:40;3.83;;;1.13;;
81703;SDS011;71117;52.352;4.808;2023-08-06T14:09:05;4.63;;;0.93;;
81703;SDS011;71117;52.352;4.808;2023-08-06T14:11:32;3.53;;;0.90;;
81703;SDS011;71117;52.352;4.808;2023-08-06T14:13:57;13.68;;;1.20;;
81703;SDS011;71117;52.352;4.808;2023-08-06T14:16:23;2.40;;;0.60;;
81703;SDS011;71117;52.352;4.808;2023-08-06T14:18:48;4.53;;;0.70;;
81703;SDS011;71117;52.352;4.808;2023-08-06T14:21:13;3.88;;;0.45;;
81703;SDS011;71117;52.352;4.808;2023-08-06T14:23:39;2.92;;;0.47;;
81703;SDS011;71117;52.352;4.808;2023-08-06T14:26:06;3.22;;;0.60;;
81703;SDS011;71117;52.352;4.808;2023-08-06T14:28:31;5.03;;;0.60;;
81703;SDS011;71117;52.352;4.808;2023-08-06T14:30:57;4.90;;;0.60;;
81703;SDS011;71117;52.352;4.808;2023-08-06T14:33:22;8.85;;;1.73;;
81703;SDS011;71117;52.352;4.808;2023-08-06T14:35:47;3.90;;;0.70;;
81703;SDS011;71117;52.352;4.808;2023-08-06T14:38:13;3.33;;;0.73;;
81703;SDS011;71117;52.352;4.808;2023-08-06T14:40:38;4.45;;;0.60;;